Latest Weather Observations for Bunbury

IDW60801

Issued at 3:05 pm WST Saturday 25 October 2014 (issued every 30 minutes, with the page automatically refreshed every 10 minutes)

About weather observations | Map of weather stations | Latest weather observations for WA | Other Formats
Station Details ID: 009965 Name: BUNBURY Lat: -33.36 Lon: 115.64 Height: 5.2 m
Data from the previous 72 hours. | See also: Recent months at Bunbury
Date/Time
WST
Temp
°C
App
Temp
°C
Dew
Point
Rel
Hum
%
Delta-T
°C
Wind Press
QNH
hPa
Press
MSL
hPa
Rain
since 9 am
mm
Dir
 
Spd
km/h
Gust
km/h
Spd
kts
Gust
kts
25/03:00pm 20.2 17.6 14.8 71 3.2 W 22 35 12 19 1016.7 1016.6 0.4
25/02:30pm 19.7 16.6 14.5 72 3.0 W 24 35 13 19 1016.8 1016.7 0.4
25/02:00pm 18.6 17.1 16.2 86 1.4 W 19 24 10 13 1016.8 1016.7 0.4
25/01:30pm 18.4 16.8 16.4 88 1.2 W 20 32 11 17 1016.9 1016.8 0.4
25/01:11pm 17.8 15.8 16.5 92 0.8 W 22 41 12 22 1017.0 1016.9 0.4
25/01:10pm 17.7 15.6 16.2 91 0.9 W 22 41 12 22 1019.0 1018.9 0.4
25/01:00pm 18.2 16.5 16.2 88 1.2 W 20 32 11 17 1017.0 1016.9 0.0
25/12:30pm 20.6 18.4 14.5 68 3.6 NW 19 28 10 15 1016.8 1016.7 0.0
25/12:00pm 20.8 18.6 14.5 67 3.7 WNW 19 28 10 15 1016.9 1016.8 0.0
25/11:30am 20.8 18.7 14.7 68 3.6 WNW 19 28 10 15 1017.0 1016.9 0.0
25/11:00am 19.8 17.5 14.2 70 3.2 WNW 19 28 10 15 1017.2 1017.1 0.0
25/10:30am 20.3 17.9 14.4 69 3.4 WNW 20 28 11 15 1017.3 1017.2 0.0
25/10:00am 20.1 17.6 14.0 68 3.5 W 20 28 11 15 1017.3 1017.2 0.0
25/09:30am 19.0 16.8 13.2 69 3.3 W 17 26 9 14 1017.1 1017.0 0.0
25/09:00am 19.2 16.6 13.2 68 3.4 W 19 26 10 14 1017.0 1016.9 0.0
25/08:30am 19.4 17.3 13.6 69 3.3 WSW 17 28 9 15 1016.7 1016.6 0.0
25/08:00am 18.4 16.8 12.8 70 3.1 W 13 22 7 12 1016.5 1016.4 0.0
25/07:30am 18.5 16.8 12.5 68 3.3 W 13 22 7 12 1016.3 1016.2 0.0
25/07:00am 17.7 16.0 12.6 72 2.8 WSW 13 22 7 12 1016.1 1016.0 0.0
25/06:30am 17.4 15.8 12.7 74 2.6 WSW 13 22 7 12 1015.9 1015.8 0.0
25/06:00am 16.9 15.9 13.4 80 2.0 WSW 11 22 6 12 1015.6 1015.5 0.0
25/05:30am 16.5 15.9 14.5 88 1.1 SW 11 17 6 9 1015.3 1015.2 0.0
25/05:00am 14.9 15.3 13.6 92 0.7 NW 4 11 2 6 1015.0 1014.9 0.0
25/04:30am 13.7 13.1 12.3 91 0.8 NE 7 11 4 6 1014.6 1014.5 0.0
25/04:00am 13.3 13.2 12.0 92 0.7 ENE 4 6 2 3 1014.7 1014.6 0.0
25/03:30am 12.4 12.4 11.1 92 0.7 ENE 2 4 1 2 1014.6 1014.5 0.0
25/03:00am 12.4 12.8 11.1 92 0.7 CALM 0 4 0 2 1014.6 1014.5 0.0
25/02:30am 12.2 11.7 10.9 92 0.7 E 4 6 2 3 1014.6 1014.5 0.0
25/02:00am 12.4 12.4 11.1 92 0.7 E 2 4 1 2 1014.7 1014.6 0.0
25/01:30am 12.5 12.6 11.4 93 0.6 ENE 2 4 1 2 1014.6 1014.5 0.0
25/01:00am 12.3 12.6 11.0 92 0.7 CALM 0 0 0 0 1014.7 1014.6 0.0
25/12:30am 13.2 13.7 11.6 90 0.9 CALM 0 0 0 0 1014.9 1014.8 0.0
25/12:00am 13.4 13.9 11.6 89 1.0 NE 0 2 0 1 1015.0 1014.9 0.0
 
Date/Time
WST
Temp
°C
App
Temp
°C
Dew
Point
Rel
Hum
%
Delta-T
°C
Wind Press
QNH
hPa
Press
MSL
hPa
Rain
since 9 am
mm
Dir
 
Spd
km/h
Gust
km/h
Spd
kts
Gust
kts
24/11:30pm 13.8 14.4 12.0 89 1.0 CALM 0 2 0 1 1015.3 1015.2 0.0
24/11:00pm 14.3 15.1 12.7 90 0.9 CALM 0 4 0 2 1015.4 1015.3 0.0
24/10:30pm 14.1 14.9 12.5 90 0.9 CALM 0 0 0 0 1015.7 1015.6 0.0
24/10:00pm 14.3 15.1 12.5 89 1.0 CALM 0 6 0 3 1016.0 1015.9 0.0
24/09:30pm 14.0 14.2 11.7 86 1.2 ESE 2 6 1 3 1016.0 1015.9 0.0
24/09:00pm 14.6 15.3 12.3 86 1.2 CALM 0 0 0 0 1016.1 1016.0 0.0
24/08:30pm 14.9 15.6 12.2 84 1.5 CALM 0 0 0 0 1015.9 1015.8 0.0
24/08:00pm 16.5 16.6 12.8 79 2.0 SSW 4 6 2 3 1015.8 1015.7 0.0
24/07:30pm 16.6 16.1 12.6 77 2.2 SSW 7 9 4 5 1015.6 1015.5 0.0
24/07:00pm 16.9 16.4 12.6 76 2.4 SW 7 9 4 5 1015.6 1015.5 0.0
24/06:30pm 17.4 16.6 12.9 75 2.5 SSW 9 11 5 6 1015.6 1015.5 0.0
24/06:00pm 18.0 17.2 12.9 72 2.9 WSW 9 11 5 6 1015.6 1015.5 0.0
24/05:30pm 18.5 17.6 12.5 68 3.3 SW 9 13 5 7 1015.6 1015.5 0.0
24/05:00pm 19.4 18.4 12.4 64 3.9 WSW 9 15 5 8 1015.7 1015.6 0.0
24/04:30pm 20.5 19.1 12.2 59 4.6 WSW 11 15 6 8 1015.7 1015.6 0.0
24/04:00pm 20.5 19.0 13.0 62 4.3 WSW 13 19 7 10 1015.7 1015.6 0.0
24/03:30pm 20.5 18.9 12.7 61 4.4 WSW 13 17 7 9 1015.6 1015.5 0.0
24/03:00pm 20.7 19.2 13.2 62 4.3 W 13 19 7 10 1015.8 1015.7 0.0
24/02:30pm 20.9 19.4 13.1 61 4.4 W 13 17 7 9 1015.8 1015.7 0.0
24/02:00pm 21.2 20.1 13.1 60 4.6 WNW 11 17 6 9 1016.0 1015.9 0.0
24/01:30pm 21.1 19.5 12.8 59 4.7 W 13 17 7 9 1016.4 1016.3 0.0
24/01:00pm 20.9 19.3 12.8 60 4.6 WNW 13 17 7 9 1016.8 1016.7 0.0
24/12:30pm 20.7 19.1 12.9 61 4.4 NW 13 17 7 9 1016.9 1016.8 0.0
24/12:00pm 20.5 19.6 13.7 65 3.9 NW 11 17 6 9 1017.1 1017.0 0.0
24/11:30am 20.6 19.9 14.3 67 3.7 NW 11 17 6 9 1017.4 1017.3 0.0
24/11:00am 20.6 20.1 13.8 65 3.9 N 9 17 5 9 1017.7 1017.6 0.0
24/10:30am 19.9 18.6 12.4 62 4.2 NNE 11 19 6 10 1018.2 1018.1 0.0
24/10:00am 19.7 18.2 12.0 61 4.3 NE 11 22 6 12 1018.2 1018.1 0.0
24/09:30am 18.6 17.6 12.4 67 3.5 NE 9 15 5 8 1018.3 1018.2 0.0
24/09:00am 17.4 16.5 12.5 73 2.7 E 9 13 5 7 1018.7 1018.6 0.2
24/08:30am 16.0 14.5 11.8 76 2.3 E 11 17 6 9 1018.8 1018.7 0.2
24/08:00am 15.3 13.3 11.5 78 2.0 E 13 24 7 13 1018.7 1018.6 0.2
24/07:30am 14.6 12.6 11.4 81 1.7 ENE 13 20 7 11 1018.4 1018.3 0.2
24/07:00am 13.2 12.5 11.4 89 1.0 E 6 9 3 5 1018.4 1018.3 0.2
24/06:30am 12.0 11.9 10.7 92 0.7 E 2 6 1 3 1018.3 1018.2 0.2
24/06:00am 11.2 11.3 10.0 92 0.6 CALM 0 2 0 1 1018.4 1018.3 0.2
24/05:30am 11.0 10.2 9.8 92 0.6 ENE 4 6 2 3 1018.0 1017.9 0.2
24/05:00am 10.5 10.0 9.4 93 0.5 SE 2 6 1 3 1017.8 1017.7 0.2
24/04:30am 10.5 9.2 9.3 92 0.6 ESE 6 7 3 4 1017.6 1017.5 0.2
24/04:00am 10.5 10.4 9.3 92 0.6 CALM 0 0 0 0 1017.8 1017.7 0.2
24/03:30am 11.0 9.9 9.8 92 0.6 SE 6 7 3 4 1018.0 1017.9 0.2
24/03:00am 11.4 10.7 10.1 92 0.7 SSE 4 9 2 5 1018.2 1018.1 0.2
24/02:30am 11.7 10.7 10.4 92 0.7 S 6 7 3 4 1018.2 1018.1 0.2
24/02:00am 12.0 10.9 10.7 92 0.7 S 7 9 4 5 1018.3 1018.2 0.2
24/01:30am 11.9 11.0 10.8 93 0.6 S 6 7 3 4 1018.4 1018.3 0.2
24/01:00am 11.9 11.0 10.6 92 0.7 S 6 7 3 4 1018.4 1018.3 0.2
24/12:30am 11.7 10.7 10.4 92 0.7 S 6 9 3 5 1018.5 1018.4 0.2
24/12:00am 11.9 11.0 10.5 91 0.7 S 6 6 3 3 1018.5 1018.4 0.2
 
Date/Time
WST
Temp
°C
App
Temp
°C
Dew
Point
Rel
Hum
%
Delta-T
°C
Wind Press
QNH
hPa
Press
MSL
hPa
Rain
since 9 am
mm
Dir
 
Spd
km/h
Gust
km/h
Spd
kts
Gust
kts
23/11:30pm 12.0 12.1 10.1 88 1.0 CALM 0 0 0 0 1018.4 1018.3 0.2
23/11:00pm 13.0 13.3 10.9 87 1.1 CALM 0 0 0 0 1018.5 1018.4 0.2
23/10:30pm 13.7 13.3 11.0 84 1.4 S 4 6 2 3 1018.5 1018.4 0.2
23/10:00pm 14.1 13.2 11.3 83 1.5 S 7 9 4 5 1018.6 1018.5 0.2
23/09:30pm 14.3 13.3 11.1 81 1.7 S 7 11 4 6 1018.6 1018.5 0.2
23/09:00pm 15.0 13.7 11.2 78 2.0 S 9 11 5 6 1018.7 1018.6 0.2
23/08:30pm 15.4 14.4 11.0 75 2.3 S 7 11 4 6 1018.6 1018.5 0.2
23/08:00pm 15.8 14.9 11.2 74 2.5 S 7 9 4 5 1018.2 1018.1 0.2
23/07:30pm 16.4 15.7 11.3 72 2.7 S 6 7 3 4 1017.8 1017.7 0.2
23/07:00pm 17.1 16.4 11.4 69 3.1 S 6 9 3 5 1017.4 1017.3 0.2
23/06:30pm 18.1 17.2 11.2 64 3.7 SSW 7 9 4 5 1017.0 1016.9 0.2
23/06:00pm 19.6 18.0 11.4 59 4.5 S 11 15 6 8 1016.6 1016.5 0.2
23/05:30pm 20.2 18.6 11.4 57 4.8 S 11 17 6 9 1016.3 1016.2 0.2
23/05:00pm 20.3 17.6 11.8 58 4.7 S 17 24 9 13 1016.2 1016.1 0.2
23/04:30pm 21.8 18.4 12.6 56 5.2 SSW 22 30 12 16 1015.9 1015.8 0.2
23/04:00pm 19.9 17.4 13.4 66 3.7 WSW 19 32 10 17 1015.8 1015.7 0.2
23/03:30pm 21.1 18.6 13.5 62 4.4 WSW 19 30 10 16 1015.7 1015.6 0.2
23/03:00pm 20.7 17.3 13.6 64 4.1 WSW 24 35 13 19 1015.5 1015.4 0.2
23/02:30pm 21.5 19.1 13.9 62 4.4 W 19 32 10 17 1015.5 1015.4 0.2
23/02:00pm 21.4 18.8 13.8 62 4.4 W 20 35 11 19 1015.4 1015.3 0.2
23/01:30pm 21.7 19.4 14.1 62 4.4 WSW 19 28 10 15 1015.5 1015.4 0.2
23/01:00pm 20.9 17.9 13.6 63 4.2 WSW 22 32 12 17 1015.4 1015.3 0.2
23/12:30pm 21.2 18.9 14.6 66 3.9 WSW 20 32 11 17 1015.2 1015.1 0.2
23/12:00pm 20.9 18.8 15.2 70 3.4 WSW 20 32 11 17 1015.2 1015.1 0.2
23/11:30am 20.4 18.3 15.2 72 3.1 WSW 20 28 11 15 1015.2 1015.1 0.2
23/11:00am 20.5 19.3 16.1 76 2.6 WSW 17 24 9 13 1015.3 1015.2 0.2
23/10:30am 19.1 17.4 14.8 76 2.5 WSW 17 22 9 12 1015.2 1015.1 0.2
23/10:00am 19.8 18.7 15.4 76 2.6 WSW 15 26 8 14 1015.1 1015.0 0.0
23/09:30am 18.1 16.4 14.6 80 2.0 SSW 17 28 9 15 1015.0 1014.9 0.0
23/09:00am 16.9 14.6 14.7 87 1.3 WSW 20 37 11 20 1014.7 1014.6 -
23/08:30am 19.3 17.0 14.6 74 2.7 W 20 33 11 18 1014.2 1014.1 -
23/08:00am 18.6 15.9 14.5 77 2.4 W 22 30 12 16 1013.8 1013.8 -
23/07:30am 18.0 16.2 14.5 80 2.0 WSW 17 22 9 12 1013.6 1013.6 -
23/07:00am 18.0 15.4 13.7 76 2.4 W 20 32 11 17 1013.2 1013.2 -
23/06:30am 17.7 15.4 14.0 79 2.1 W 19 30 10 16 1013.0 1013.0 -
23/06:00am 17.6 15.9 13.5 77 2.3 W 15 24 8 13 1012.7 1012.7 -
23/05:30am 17.2 14.9 12.9 76 2.4 W 17 24 9 13 1012.4 1012.4 -
23/05:00am 17.4 14.6 12.7 74 2.6 W 19 28 10 15 1012.2 1012.2 -
23/04:30am 17.1 14.7 12.8 76 2.4 WNW 17 24 9 13 1012.1 1012.1 -
23/04:00am 16.9 15.4 13.0 78 2.2 WNW 13 20 7 11 1011.9 1011.9 -
23/03:30am 16.8 14.9 12.9 78 2.2 WNW 15 22 8 12 1011.8 1011.8 -
23/03:00am 16.8 14.7 12.5 76 2.4 WNW 15 24 8 13 1012.0 1012.0 0.0
23/02:30am 17.1 14.8 13.0 77 2.3 W 17 24 9 13 1011.9 1011.9 -
23/02:00am 17.2 15.2 12.7 75 2.5 W 15 22 8 12 1012.2 1012.2 -
23/01:30am 16.2 15.7 12.6 79 2.0 W 7 13 4 7 1012.4 1012.4 -
23/01:00am 16.8 16.4 12.5 76 2.4 W 6 9 3 5 1012.2 1012.2 -
23/12:30am 17.6 16.5 13.1 75 2.5 W 11 15 6 8 1012.9 1012.9 -
23/12:00am 17.8 16.1 13.5 76 2.4 W 15 22 8 12 1013.4 1013.4 -
 
Date/Time
WST
Temp
°C
App
Temp
°C
Dew
Point
Rel
Hum
%
Delta-T
°C
Wind Press
QNH
hPa
Press
MSL
hPa
Rain
since 9 am
mm
Dir
 
Spd
km/h
Gust
km/h
Spd
kts
Gust
kts
22/11:30pm 17.5 15.7 13.4 77 2.3 W 15 20 8 11 1013.4 1013.4 -
22/11:00pm 17.9 16.2 13.6 76 2.4 W 15 22 8 12 1013.5 1013.5 -
22/10:30pm 17.9 17.0 13.8 77 2.3 W 11 20 6 11 1013.8 1013.8 -
22/10:00pm 18.0 15.9 13.7 76 2.4 W 17 26 9 14 1013.7 1013.7 -
22/09:30pm 17.9 15.8 13.6 76 2.4 W 17 24 9 13 1013.6 1013.6 -
22/09:00pm 18.3 17.0 14.8 80 2.0 W 15 24 8 13 1013.4 1013.4 -
22/08:30pm 18.4 17.7 15.5 83 1.7 W 13 24 7 13 1013.2 1013.2 -
22/08:00pm 18.8 16.9 15.3 80 2.1 W 19 28 10 15 1012.9 1012.9 -
22/07:30pm 19.1 18.7 16.3 84 1.7 W 13 20 7 11 1012.6 1012.6 -
22/07:00pm 19.1 18.4 16.3 84 1.7 W 15 24 8 13 1012.3 1012.3 -
22/06:30pm 19.5 19.5 16.3 82 1.9 WNW 11 22 6 12 1012.1 1012.1 -
22/06:00pm 19.9 19.9 16.2 79 2.2 WNW 11 19 6 10 1011.7 1011.7 -
22/05:30pm 20.5 18.9 16.1 76 2.6 W 19 26 10 14 1011.3 1011.3 -
22/05:00pm 21.0 20.4 16.6 76 2.7 NW 15 20 8 11 1011.0 1011.0 -
22/04:30pm 21.6 - 17.0 75 2.8 - - - - - 1010.4 1010.4 -

Other Formats:

Comma delimited format used in spreadsheet applications
http://www.bom.gov.au/fwo/IDW60801/IDW60801.94604.axf

JavaScript Object Notation format (JSON) in row-major order
http://www.bom.gov.au/fwo/IDW60801/IDW60801.94604.json